createdAt,value
2022-09-09T10:21:02.079Z,42.7
2022-09-09T10:21:22.823Z,42.65
2022-09-09T10:21:37.704Z,42.62
2022-09-09T10:21:53.166Z,42.58
2022-09-09T10:22:08.106Z,42.55
2022-09-09T10:22:29.248Z,42.48
2022-09-09T10:22:57.536Z,42.42
2022-09-09T10:23:12.251Z,42.36
2022-09-09T10:23:28.831Z,42.33
2022-09-09T10:23:59.700Z,42.28
2022-09-09T10:24:18.914Z,42.23
2022-09-09T10:24:50.004Z,42.12
2022-09-09T10:25:07.900Z,42.08
2022-09-09T10:25:26.999Z,42.04
2022-09-09T10:25:54.662Z,41.92
2022-09-09T10:26:08.407Z,41.88
2022-09-09T10:26:58.541Z,41.7
2022-09-09T10:27:12.941Z,41.64
2022-09-09T10:27:27.948Z,41.58
2022-09-09T10:28:19.825Z,41.41
2022-09-09T10:28:33.087Z,41.36
2022-09-09T10:28:50.701Z,41.28
2022-09-09T10:29:04.883Z,41.26
2022-09-09T10:29:21.440Z,41.19
2022-09-09T10:29:36.890Z,41.17
2022-09-09T10:29:53.225Z,41.13
2022-09-09T10:30:08.629Z,41.07
2022-09-09T10:30:24.786Z,41.04
2022-09-09T10:30:43.003Z,40.98
2022-09-09T10:31:12.926Z,40.87
2022-09-09T10:31:29.840Z,40.8
2022-09-09T10:31:47.007Z,40.77
2022-09-09T10:32:01.346Z,40.72
2022-09-09T10:32:18.159Z,40.68
2022-09-09T10:32:38.295Z,40.65
2022-09-09T10:32:51.054Z,40.61
2022-09-09T10:33:23.239Z,40.57
2022-09-09T10:33:40.716Z,40.57
2022-09-09T10:33:56.213Z,40.57
2022-09-09T10:34:07.893Z,40.55
2022-09-09T10:34:31.057Z,40.56
2022-09-09T10:34:41.279Z,40.58
2022-09-09T10:34:59.794Z,40.56
2022-09-09T10:35:12.347Z,40.58
2022-09-09T10:35:31.939Z,40.59
2022-09-09T10:37:42.903Z,40.69
2022-09-09T10:37:54.185Z,40.72
2022-09-09T10:38:27.865Z,40.76
2022-09-09T10:38:43.731Z,40.79
2022-09-09T10:38:56.914Z,40.8
2022-09-09T10:39:16.451Z,40.85
2022-09-09T10:39:31.474Z,40.87
2022-09-09T10:39:44.902Z,40.88
2022-09-09T10:40:03.580Z,40.93
2022-09-09T10:40:18.269Z,40.97
2022-09-09T10:40:32.521Z,41
2022-09-09T10:40:48.406Z,41.02
2022-09-09T10:41:07.227Z,41.04
2022-09-09T10:41:21.720Z,41.09
2022-09-09T10:41:36.050Z,41.12
2022-09-09T10:41:53.626Z,41.13
2022-09-09T10:42:10.947Z,41.19
2022-09-09T10:42:23.890Z,41.2
2022-09-09T10:42:42.335Z,41.23
2022-09-09T10:42:56.034Z,41.23
2022-09-09T10:43:12.908Z,41.26
2022-09-09T10:43:47.902Z,41.3
2022-09-09T10:44:19.493Z,41.32
2022-09-09T10:44:34.138Z,41.33
2022-09-09T10:44:53.436Z,41.34
2022-09-09T10:45:10.437Z,41.37
2022-09-09T10:45:22.217Z,41.38
2022-09-09T10:45:36.717Z,41.4
2022-09-09T10:45:53.890Z,41.41
2022-09-09T10:46:10.225Z,41.42
2022-09-09T10:46:24.045Z,41.41
2022-09-09T10:46:42.479Z,41.42
2022-09-09T10:47:12.804Z,41.47
2022-09-09T10:47:29.380Z,41.49
2022-09-09T10:47:44.334Z,41.48
2022-09-09T10:48:16.415Z,41.49
2022-09-09T10:48:33.888Z,41.51
2022-09-09T10:48:48.675Z,41.51
2022-09-09T10:49:05.290Z,41.52
2022-09-09T10:49:23.269Z,41.53
2022-09-09T10:49:37.238Z,41.54
2022-09-09T10:49:54.877Z,41.59
2022-09-09T10:51:00.366Z,41.61
2022-09-09T10:51:03.571Z,41.63
2022-09-09T10:51:12.213Z,41.65
2022-09-09T10:51:30.058Z,41.66
2022-09-09T10:51:44.686Z,41.67
2022-09-09T10:52:01.344Z,41.67
2022-09-09T10:52:16.257Z,41.66
2022-09-09T10:52:32.637Z,41.67
2022-09-09T10:52:48.417Z,41.65
2022-09-09T10:53:06.919Z,41.67
2022-09-09T10:53:20.657Z,41.66
2022-09-09T10:53:37.767Z,41.64
2022-09-09T10:53:52.835Z,41.65
2022-09-09T10:54:08.281Z,41.67
2022-09-09T10:54:24.596Z,41.68
2022-09-09T10:54:39.730Z,41.69
2022-09-09T10:55:14.883Z,41.69
2022-09-09T10:55:29.998Z,41.69
2022-09-09T10:55:44.201Z,41.68
2022-09-09T10:56:31.985Z,41.67
2022-09-09T10:56:54.418Z,41.67
2022-09-09T10:58:08.046Z,41.58
2022-09-09T10:58:27.732Z,41.55
2022-09-09T10:58:41.340Z,41.52
2022-09-09T10:58:57.419Z,41.51
2022-09-09T10:59:14.247Z,41.48
2022-09-09T10:59:27.889Z,41.45
2022-09-09T10:59:59.765Z,41.42
2022-09-09T11:00:17.012Z,41.41
2022-09-09T11:00:32.790Z,41.37
2022-09-09T11:00:51.327Z,41.39
2022-09-09T11:01:04.277Z,41.37
2022-09-09T11:01:22.277Z,41.35
2022-09-09T11:01:38.369Z,41.35
2022-09-09T11:02:10.080Z,41.33
2022-09-09T11:02:27.090Z,41.35
2022-09-09T11:02:40.609Z,41.36
2022-09-09T11:02:58.695Z,41.34
2022-09-09T11:03:28.679Z,41.35
2022-09-09T11:03:46.382Z,41.37
2022-09-09T11:04:01.386Z,41.38
2022-09-09T11:04:17.477Z,41.39
2022-09-09T11:04:32.686Z,41.4
2022-09-09T11:04:51.127Z,41.44
2022-09-09T11:05:05.977Z,41.41
2022-09-09T11:05:20.009Z,41.43
2022-09-09T11:05:39.666Z,41.42
2022-09-09T11:05:53.908Z,41.45
2022-09-09T11:06:09.236Z,41.47
2022-09-09T11:06:25.763Z,41.49
2022-09-09T11:06:42.335Z,41.51
2022-09-09T11:06:57.950Z,41.55
2022-09-09T11:07:15.921Z,41.55
2022-09-09T11:07:30.273Z,41.58
2022-09-09T11:07:46.598Z,41.59
2022-09-09T11:08:17.338Z,41.63
2022-09-09T11:08:47.974Z,41.66
2022-09-09T11:09:07.806Z,41.66
2022-09-09T11:09:22.860Z,41.66
2022-09-09T11:09:35.838Z,41.64
2022-09-09T11:09:52.767Z,41.63
2022-09-09T11:10:08.196Z,41.59
2022-09-09T11:10:26.187Z,41.55
2022-09-09T11:10:39.920Z,41.55
2022-09-09T11:10:57.233Z,41.53
2022-09-09T11:11:28.956Z,41.53
2022-09-09T11:11:45.859Z,41.53
2022-09-09T11:11:59.310Z,41.52
2022-09-09T11:12:17.385Z,41.5
2022-09-09T11:12:36.658Z,41.51
2022-09-09T11:12:49.395Z,41.51
2022-09-09T11:13:08.384Z,41.53
2022-09-09T11:13:20.970Z,41.53
2022-09-09T11:13:37.678Z,41.55
2022-09-09T11:14:09.834Z,41.59
2022-09-09T11:14:26.526Z,41.61
2022-09-09T11:14:55.872Z,41.61
2022-09-09T11:15:12.788Z,41.61
2022-09-09T11:15:31.026Z,41.63
2022-09-09T11:16:00.344Z,41.68
2022-09-09T11:16:18.132Z,41.7
2022-09-09T11:16:50.200Z,41.74
2022-09-09T11:17:04.393Z,41.78
2022-09-09T11:17:22.494Z,41.8
2022-09-09T11:17:36.087Z,41.81
2022-09-09T11:17:54.040Z,41.84
2022-09-09T11:18:08.497Z,41.88
2022-09-09T11:18:23.944Z,41.9
2022-09-09T11:18:41.510Z,41.95
2022-09-09T11:18:59.785Z,41.97
2022-09-09T11:19:15.404Z,42
2022-09-09T11:19:28.057Z,42.03
2022-09-09T11:19:46.519Z,42.06
2022-09-09T11:20:02.702Z,42.08
2022-09-09T11:20:15.807Z,42.1
2022-09-09T11:20:32.579Z,42.12
2022-09-09T11:21:04.688Z,42.18
2022-09-09T11:21:21.664Z,42.19
2022-09-09T11:21:36.460Z,42.23
2022-09-09T11:21:52.419Z,42.23
2022-09-09T11:22:09.918Z,42.26
2022-09-09T11:22:25.789Z,42.28
2022-09-09T11:22:41.538Z,42.31
2022-09-09T11:22:56.280Z,42.33
2022-09-09T11:23:14.651Z,42.38
2022-09-09T11:23:28.446Z,42.4
2022-09-09T11:23:46.443Z,42.42
2022-09-09T11:24:00.463Z,42.45
2022-09-09T11:24:16.254Z,42.46
2022-09-09T11:24:48.559Z,42.53
2022-09-09T11:25:05.360Z,42.55
2022-09-09T11:25:21.463Z,42.57
2022-09-09T11:25:39.722Z,42.59
2022-09-09T11:25:56.273Z,42.65
2022-09-09T11:26:10.613Z,42.65
2022-09-09T11:26:57.723Z,42.74
2022-09-09T11:27:31.401Z,42.78
2022-09-09T11:28:01.251Z,42.82
2022-09-09T11:28:16.755Z,42.84
2022-09-09T11:28:31.946Z,42.85
2022-09-09T11:28:48.491Z,42.89
2022-09-09T11:29:05.079Z,42.93
2022-09-09T11:29:20.314Z,42.93
2022-09-09T11:29:35.615Z,42.97
2022-09-09T11:29:53.852Z,42.99
2022-09-09T11:30:08.477Z,43.01
2022-09-09T11:30:51.315Z,43.03
2022-09-09T11:30:56.166Z,43.05
2022-09-09T11:30:58.385Z,43.06
2022-09-09T11:31:27.552Z,43.12
2022-09-09T11:31:44.697Z,43.15
2022-09-09T11:32:00.781Z,43.16
2022-09-09T11:32:17.062Z,43.17
2022-09-09T11:32:33.454Z,43.19
2022-09-09T11:32:49.854Z,43.21
2022-09-09T11:33:03.854Z,43.24
2022-09-09T11:33:20.676Z,43.25
2022-09-09T11:33:36.769Z,43.26
2022-09-09T11:33:54.485Z,43.3
2022-09-09T11:34:08.572Z,43.32
2022-09-09T11:34:25.079Z,43.32
2022-09-09T11:34:42.888Z,43.37
2022-09-09T11:34:55.691Z,43.35
2022-09-09T11:35:15.047Z,43.39
2022-09-09T11:35:27.714Z,43.4
2022-09-09T11:35:46.351Z,43.42
2022-09-09T11:36:05.885Z,43.45
2022-09-09T11:36:16.691Z,43.45
2022-09-09T11:36:34.039Z,43.48
2022-09-09T11:36:47.386Z,43.48
2022-09-09T11:37:04.002Z,43.51
2022-09-09T11:37:21.109Z,43.52
2022-09-09T11:37:36.401Z,43.54
2022-09-09T11:37:51.553Z,43.54
2022-09-09T11:38:10.197Z,43.55
2022-09-09T11:38:26.925Z,43.57
2022-09-09T11:38:41.990Z,43.58
2022-09-09T11:38:56.232Z,43.6
2022-09-09T11:39:12.785Z,43.63
2022-09-09T11:39:32.757Z,43.62
2022-09-09T11:39:47.784Z,43.66
2022-09-09T11:40:01.799Z,43.66
2022-09-09T11:40:17.265Z,43.66
2022-09-09T11:40:33.626Z,43.69
2022-09-09T11:40:48.504Z,43.7
2022-09-09T11:41:05.726Z,43.72
2022-09-09T11:41:21.713Z,43.72
2022-09-09T11:41:38.992Z,43.74
2022-09-09T11:41:55.187Z,43.76
2022-09-09T11:42:10.298Z,43.78
2022-09-09T11:42:24.547Z,43.8
2022-09-09T11:42:39.876Z,43.8
2022-09-09T11:43:13.178Z,43.82
2022-09-09T11:43:29.506Z,43.84
2022-09-09T11:43:44.052Z,43.85
2022-09-09T11:44:00.475Z,43.84
2022-09-09T11:44:18.436Z,43.87
2022-09-09T11:44:49.381Z,43.88
2022-09-09T11:45:05.208Z,43.91
2022-09-09T11:45:20.735Z,43.94
2022-09-09T11:45:36.278Z,43.92
2022-09-09T11:45:58.656Z,43.95
2022-09-09T11:46:24.538Z,43.97
2022-09-09T11:46:40.878Z,43.99
2022-09-09T11:46:59.182Z,44
2022-09-09T11:47:12.651Z,44
2022-09-09T11:47:27.730Z,44.01
2022-09-09T11:47:44.029Z,44.04
2022-09-09T11:48:00.850Z,44.05
2022-09-09T11:48:17.774Z,44.06
2022-09-09T11:48:49.514Z,44.07
2022-09-09T11:49:05.159Z,44.07
2022-09-09T11:49:23.154Z,44.09
2022-09-09T11:49:36.056Z,44.09
2022-09-09T11:50:08.003Z,44.09
2022-09-09T11:50:23.707Z,44.13
2022-09-09T11:50:41.321Z,44.12
2022-09-09T11:50:55.551Z,44.12
2022-09-09T11:51:16.746Z,44.15
2022-09-09T11:51:27.944Z,44.16
2022-09-09T11:51:47.499Z,44.16
2022-09-09T11:51:59.819Z,44.17
2022-09-09T11:52:18.527Z,44.19
2022-09-09T11:52:32.554Z,44.2
2022-09-09T11:52:49.095Z,44.22
2022-09-09T11:53:04.089Z,44.22
2022-09-09T11:53:19.745Z,44.23
2022-09-09T11:53:38.234Z,44.23
2022-09-09T11:53:52.138Z,44.23
2022-09-09T11:54:09.000Z,44.25
2022-09-09T11:54:23.721Z,44.28
2022-09-09T11:54:40.349Z,44.28
2022-09-09T11:54:57.678Z,44.28
2022-09-09T11:55:11.415Z,44.29
2022-09-09T11:55:29.056Z,44.28
2022-09-09T11:55:44.087Z,44.3
2022-09-09T11:56:02.589Z,44.3
2022-09-09T11:56:15.641Z,44.3
2022-09-09T11:56:34.842Z,44.33
2022-09-09T11:57:05.711Z,44.34
2022-09-09T11:57:22.519Z,44.36
2022-09-09T11:57:36.972Z,44.36
2022-09-09T11:57:53.754Z,44.38
2022-09-09T11:58:07.616Z,44.4
2022-09-09T11:58:24.388Z,44.4
2022-09-09T11:58:41.140Z,44.42
2022-09-09T11:58:56.580Z,44.45
2022-09-09T11:59:11.597Z,44.45
2022-09-09T11:59:28.628Z,44.47
2022-09-09T11:59:43.805Z,44.49
2022-09-09T12:00:01.051Z,44.48
2022-09-09T12:00:17.550Z,44.51
2022-09-09T12:00:34.010Z,44.52
2022-09-09T12:00:50.630Z,44.52
2022-09-09T12:01:05.131Z,44.55
2022-09-09T12:01:21.828Z,44.57
2022-09-09T12:01:36.799Z,44.57
2022-09-09T12:02:10.217Z,44.59
2022-09-09T12:02:25.017Z,44.61
2022-09-09T12:02:40.200Z,44.6
2022-09-09T12:02:56.388Z,44.61
2022-09-09T12:03:13.292Z,44.61
2022-09-09T12:03:29.090Z,44.63
2022-09-09T12:03:45.261Z,44.64
2022-09-09T12:04:04.578Z,44.65
2022-09-09T12:04:22.344Z,44.66
2022-09-09T12:04:32.742Z,44.66
2022-09-09T12:04:49.843Z,44.66
2022-09-09T12:05:06.845Z,44.66
2022-09-09T12:05:24.733Z,44.69
2022-09-09T12:05:38.365Z,44.7
2022-09-09T12:05:52.678Z,44.71
2022-09-09T12:06:09.726Z,44.72
2022-09-09T12:06:26.547Z,44.73
2022-09-09T12:06:41.477Z,44.76
2022-09-09T12:06:57.414Z,44.75
2022-09-09T12:07:14.871Z,44.75
2022-09-09T12:07:44.590Z,44.77
2022-09-09T12:08:03.680Z,44.75
2022-09-09T12:08:35.079Z,44.76
2022-09-09T12:08:49.039Z,44.76
2022-09-09T12:09:05.880Z,44.77
2022-09-09T12:09:20.721Z,44.78
2022-09-09T12:09:36.720Z,44.82
2022-09-09T12:09:54.140Z,44.79
2022-09-09T12:10:08.637Z,44.79
2022-09-09T12:10:25.284Z,44.82
2022-09-09T12:10:43.039Z,44.83
2022-09-09T12:10:58.706Z,44.84
2022-09-09T12:11:13.102Z,44.82
2022-09-09T12:11:28.190Z,44.81
2022-09-09T12:11:43.568Z,44.85
2022-09-09T12:12:00.331Z,44.85
2022-09-09T12:12:19.889Z,44.88
2022-09-09T12:12:32.636Z,44.88
2022-09-09T12:12:47.906Z,44.87
2022-09-09T12:13:04.906Z,44.88
2022-09-09T12:13:19.852Z,44.89
2022-09-09T12:13:39.533Z,44.92
2022-09-09T12:13:53.217Z,44.91
2022-09-09T12:14:08.508Z,44.92
2022-09-09T12:14:25.359Z,44.92
2022-09-09T12:14:42.591Z,44.92
2022-09-09T12:14:55.894Z,44.9
2022-09-09T12:15:12.075Z,44.92
2022-09-09T12:15:28.722Z,44.93
2022-09-09T12:15:44.991Z,44.94
2022-09-09T12:16:00.726Z,44.95
2022-09-09T12:16:17.119Z,44.95
2022-09-09T12:16:49.420Z,44.96
2022-09-09T12:17:04.340Z,44.97
2022-09-09T12:17:21.232Z,44.98
2022-09-09T12:17:39.352Z,44.97
2022-09-09T12:18:11.129Z,45
2022-09-09T12:18:28.086Z,45
2022-09-09T12:18:41.104Z,45
2022-09-09T12:18:58.260Z,45.02
2022-09-09T12:19:11.751Z,45.02
2022-09-09T12:19:28.623Z,45.04
2022-09-09T12:19:43.922Z,45.03
2022-09-09T12:20:02.200Z,45.04
2022-09-09T12:20:17.694Z,45.04
2022-09-09T12:20:34.524Z,45.04
2022-09-09T12:20:47.958Z,45.06
2022-09-09T12:21:05.106Z,45.06
2022-09-09T12:21:20.700Z,45.04
2022-09-09T12:21:37.413Z,45.06
2022-09-09T12:21:52.556Z,45.06
2022-09-09T12:22:07.902Z,45.07
2022-09-09T12:22:28.781Z,45.08
2022-09-09T12:22:42.443Z,45.08
2022-09-09T12:22:55.308Z,45.09
2022-09-09T12:23:12.150Z,45.08
2022-09-09T12:23:28.556Z,45.1
2022-09-09T12:23:47.114Z,45.12
2022-09-09T12:24:00.316Z,45.1
2022-09-09T12:24:16.158Z,45.1
2022-09-09T12:24:49.147Z,45.13
2022-09-09T12:25:03.973Z,45.1
2022-09-09T12:25:23.516Z,45.13
2022-09-09T12:25:37.197Z,45.14
2022-09-09T12:26:08.395Z,45.13
2022-09-09T12:26:25.340Z,45.12
2022-09-09T12:26:40.899Z,45.15
2022-09-09T12:26:59.927Z,45.16
2022-09-09T12:27:12.136Z,45.14
2022-09-09T12:27:28.139Z,45.15
2022-09-09T12:27:45.789Z,45.16
2022-09-09T12:28:01.775Z,45.16
2022-09-09T12:28:17.130Z,45.17
2022-09-09T12:28:33.342Z,45.17
2022-09-09T12:28:48.790Z,45.16
2022-09-09T12:29:07.835Z,45.17
2022-09-09T12:29:36.176Z,45.16
2022-09-09T12:29:53.626Z,45.18
2022-09-09T12:30:08.871Z,45.17
2022-09-09T12:30:25.822Z,45.17
2022-09-09T12:30:40.584Z,45.18
2022-09-09T12:30:56.616Z,45.2
2022-09-09T12:31:13.373Z,45.2
2022-09-09T12:31:29.444Z,45.18
2022-09-09T12:31:45.858Z,45.2
2022-09-09T12:32:00.685Z,45.19
2022-09-09T12:32:16.214Z,45.22
2022-09-09T12:32:32.679Z,45.21
2022-09-09T12:32:51.795Z,45.21
2022-09-09T12:33:04.301Z,45.23
2022-09-09T12:33:21.197Z,45.22
2022-09-09T12:33:37.020Z,45.24
2022-09-09T12:33:52.309Z,45.23
2022-09-09T12:34:09.440Z,45.24
2022-09-09T12:34:26.785Z,45.23
2022-09-09T12:34:41.480Z,45.23
2022-09-09T12:34:56.510Z,45.23
2022-09-09T12:35:11.912Z,45.26
2022-09-09T12:35:28.701Z,45.26
2022-09-09T12:35:43.796Z,45.24
2022-09-09T12:35:59.608Z,45.25
2022-09-09T12:36:17.503Z,45.25
2022-09-09T12:36:31.145Z,45.26
2022-09-09T12:36:53.742Z,45.26
2022-09-09T12:37:04.006Z,45.26
2022-09-09T12:37:35.927Z,45.27
2022-09-09T12:37:55.205Z,45.28
2022-09-09T12:38:07.765Z,45.29
2022-09-09T12:38:25.113Z,45.28
2022-09-09T12:38:44.262Z,45.27
2022-09-09T12:38:56.935Z,45.28
2022-09-09T12:39:12.057Z,45.28
2022-09-09T12:39:29.330Z,45.28
2022-09-09T12:39:44.250Z,45.29
2022-09-09T12:39:59.306Z,45.3
2022-09-09T12:40:16.926Z,45.31
2022-09-09T12:40:33.246Z,45.31
2022-09-09T12:41:07.378Z,45.31
2022-09-09T12:41:20.909Z,45.31
2022-09-09T12:41:35.857Z,45.31
2022-09-09T12:41:51.990Z,45.32
2022-09-09T12:42:12.041Z,45.33
2022-09-09T12:42:25.448Z,45.32
2022-09-09T12:42:41.384Z,45.31
2022-09-09T12:42:59.430Z,45.33
2022-09-09T12:43:12.447Z,45.32
2022-09-09T12:43:27.622Z,45.35
2022-09-09T12:43:44.949Z,45.34
2022-09-09T12:44:00.469Z,45.33
2022-09-09T12:44:19.085Z,45.35
2022-09-09T12:44:32.338Z,45.35
2022-09-09T12:44:51.591Z,45.35
2022-09-09T12:45:19.286Z,45.35
2022-09-09T12:45:36.645Z,45.37
2022-09-09T12:45:52.125Z,45.37
2022-09-09T12:46:08.130Z,45.36
2022-09-09T12:46:26.773Z,45.37
2022-09-09T12:46:42.271Z,45.39
2022-09-09T12:46:56.128Z,45.38
2022-09-09T12:47:11.699Z,45.39
2022-09-09T12:47:30.376Z,45.38
2022-09-09T12:47:44.678Z,45.38
2022-09-09T12:48:03.044Z,45.38
2022-09-09T12:48:17.065Z,45.4
2022-09-09T12:48:49.626Z,45.39
2022-09-09T12:49:04.329Z,45.4
2022-09-09T12:49:52.065Z,45.41
2022-09-09T12:50:08.880Z,45.4
2022-09-09T12:50:24.602Z,45.42
2022-09-09T12:50:43.259Z,45.41
2022-09-09T12:51:00.371Z,45.43
2022-09-09T12:51:15.757Z,45.43
2022-09-09T12:51:28.798Z,45.44
2022-09-09T12:51:46.116Z,45.43
2022-09-09T12:52:00.512Z,45.44
2022-09-09T12:52:16.498Z,45.45
2022-09-09T12:52:32.487Z,45.45
2022-09-09T12:52:48.578Z,45.44
2022-09-09T12:53:54.977Z,45.45
2022-09-09T12:54:25.370Z,45.43
2022-09-09T12:54:41.834Z,45.46
2022-09-09T12:54:55.923Z,45.47
2022-09-09T12:55:13.142Z,45.44
2022-09-09T12:56:16.839Z,45.45
2022-09-09T12:57:50.963Z,45.48
2022-09-09T12:58:11.106Z,45.47
2022-09-09T12:58:25.329Z,45.46
2022-09-09T12:58:40.444Z,45.48
2022-09-09T12:58:56.193Z,45.5
2022-09-09T12:59:12.204Z,45.48
2022-09-09T12:59:29.179Z,45.5
2022-09-09T12:59:44.907Z,45.51
2022-09-09T13:00:00.218Z,45.51
2022-09-09T13:00:17.641Z,45.52
2022-09-09T13:00:31.691Z,45.53
2022-09-09T13:00:48.666Z,45.5
2022-09-09T13:01:04.444Z,45.51
2022-09-09T13:01:36.623Z,45.53
2022-09-09T13:01:52.760Z,45.53
2022-09-09T13:02:09.543Z,45.53
2022-09-09T13:02:24.404Z,45.54
2022-09-09T13:02:40.785Z,45.52
2022-09-09T13:02:58.547Z,45.54
2022-09-09T13:03:16.646Z,45.55
2022-09-09T13:03:43.317Z,45.54
2022-09-09T13:03:59.861Z,45.54
2022-09-09T13:04:18.354Z,45.54
2022-09-09T13:04:32.364Z,45.54
2022-09-09T13:04:48.674Z,45.56
2022-09-09T13:05:04.026Z,45.53
2022-09-09T13:05:21.561Z,45.56
2022-09-09T13:05:36.158Z,45.55
2022-09-09T13:05:52.063Z,45.55
2022-09-09T13:06:08.974Z,45.55
2022-09-09T13:06:28.100Z,45.56
2022-09-09T13:06:39.729Z,45.58
2022-09-09T13:06:57.624Z,45.59
2022-09-09T13:07:11.710Z,45.58
2022-09-09T13:07:28.738Z,45.58
2022-09-09T13:07:43.335Z,45.58
2022-09-09T13:08:00.696Z,45.58
2022-09-09T13:08:16.334Z,45.58
2022-09-09T13:08:49.002Z,45.59
2022-09-09T13:09:06.106Z,45.56
2022-09-09T13:09:22.976Z,45.6
2022-09-09T13:09:36.464Z,45.58
2022-09-09T13:09:52.150Z,45.58
2022-09-09T13:10:08.863Z,45.59
2022-09-09T13:10:36.172Z,45.58
2022-09-09T13:10:52.879Z,45.59
2022-09-09T13:11:01.764Z,45.58
2022-09-09T13:11:12.275Z,45.59
2022-09-09T13:11:27.879Z,45.6
2022-09-09T13:11:44.453Z,45.6
2022-09-09T13:12:00.960Z,45.6
2022-09-09T13:12:17.960Z,45.58
2022-09-09T13:12:31.736Z,45.61
2022-09-09T13:13:03.376Z,45.6
2022-09-09T13:13:20.499Z,45.59
2022-09-09T13:13:35.977Z,45.62
2022-09-09T13:13:50.984Z,45.62
2022-09-09T13:14:08.098Z,45.62
2022-09-09T13:14:23.143Z,45.62
2022-09-09T13:14:39.671Z,45.61
2022-09-09T13:14:55.766Z,45.63
2022-09-09T13:15:13.429Z,45.63
2022-09-09T13:15:27.727Z,45.65
2022-09-09T13:15:45.497Z,45.62
2022-09-09T13:15:59.852Z,45.65
2022-09-09T13:16:16.816Z,45.64
2022-09-09T13:16:32.215Z,45.65
2022-09-09T13:16:47.444Z,45.63
2022-09-09T13:17:05.508Z,45.64
2022-09-09T13:17:22.492Z,45.65
2022-09-09T13:17:37.821Z,45.63
2022-09-09T13:18:10.084Z,45.64
2022-09-09T13:18:23.490Z,45.64
2022-09-09T13:18:41.970Z,45.66
2022-09-09T13:18:55.451Z,45.66
2022-09-09T13:19:14.649Z,45.66
2022-09-09T13:19:27.922Z,45.66
2022-09-09T13:19:42.941Z,45.66
2022-09-09T13:19:59.917Z,45.66
2022-09-09T13:20:16.012Z,45.66
2022-09-09T13:20:32.529Z,45.68
2022-09-09T13:20:47.157Z,45.66
2022-09-09T13:21:04.178Z,45.66
2022-09-09T13:21:20.622Z,45.68
2022-09-09T13:21:36.705Z,45.68
2022-09-09T13:21:51.851Z,45.69
2022-09-09T13:22:07.206Z,45.7
2022-09-09T13:22:23.846Z,45.7
2022-09-09T13:22:43.036Z,45.7
2022-09-09T13:22:56.590Z,45.69
2022-09-09T13:23:13.223Z,45.69
2022-09-09T13:23:30.526Z,45.7
2022-09-09T13:23:45.174Z,45.7
2022-09-09T13:24:00.627Z,45.72
2022-09-09T13:24:16.231Z,45.69
2022-09-09T13:24:32.323Z,45.69
2022-09-09T13:24:47.920Z,45.68
2022-09-09T13:25:02.841Z,45.7
2022-09-09T13:25:20.118Z,45.7
2022-09-09T13:25:35.712Z,45.72
2022-09-09T13:25:54.911Z,45.7
2022-09-09T13:26:08.598Z,45.7
2022-09-09T13:26:25.896Z,45.69
2022-09-09T13:26:40.131Z,45.7
2022-09-09T13:26:56.848Z,45.69
2022-09-09T13:27:12.084Z,45.7
2022-09-09T13:27:28.296Z,45.7
2022-09-09T13:27:44.903Z,45.69
2022-09-09T13:28:03.050Z,45.68
2022-09-09T13:28:16.355Z,45.69
2022-09-09T13:28:33.693Z,45.7
2022-09-09T13:28:51.030Z,45.7
2022-09-09T13:29:03.816Z,45.7
2022-09-09T13:29:20.463Z,45.72
2022-09-09T13:29:37.187Z,45.72
2022-09-09T13:29:54.760Z,45.71
2022-09-09T13:30:07.711Z,45.71
2022-09-09T13:30:23.164Z,45.72
2022-09-09T13:30:39.809Z,45.72
2022-09-09T13:30:57.327Z,45.72
2022-09-09T13:31:12.312Z,45.74
2022-09-09T13:31:30.490Z,45.72
2022-09-09T13:31:44.726Z,45.72
2022-09-09T13:32:03.260Z,45.72
2022-09-09T13:32:16.737Z,45.73
2022-09-09T13:32:32.286Z,45.73
2022-09-09T13:32:46.996Z,45.72
2022-09-09T13:33:03.896Z,45.73
2022-09-09T13:33:20.650Z,45.73
2022-09-09T13:33:35.862Z,45.72
2022-09-09T13:33:51.128Z,45.72
2022-09-09T13:34:11.170Z,45.74
2022-09-09T13:34:24.579Z,45.72
2022-09-09T13:34:40.137Z,45.73
2022-09-09T13:34:55.904Z,45.74
2022-09-09T13:35:12.557Z,45.74
2022-09-09T13:35:27.494Z,45.74
2022-09-09T13:35:46.232Z,45.74
2022-09-09T13:36:15.319Z,45.73
2022-09-09T13:36:33.621Z,45.75
2022-09-09T13:36:49.243Z,45.74
2022-09-09T13:37:03.794Z,45.76
2022-09-09T13:37:20.134Z,45.74
2022-09-09T13:37:36.162Z,45.76
2022-09-09T13:37:52.554Z,45.75
2022-09-09T13:38:10.630Z,45.76
2022-09-09T13:38:27.545Z,45.76
2022-09-09T13:38:55.956Z,45.76
2022-09-09T13:39:11.549Z,45.74
2022-09-09T13:39:27.721Z,45.76
2022-09-09T13:39:43.177Z,45.74
2022-09-09T13:40:00.221Z,45.76
2022-09-09T13:40:16.786Z,45.76
2022-09-09T13:40:32.731Z,45.74
2022-09-09T13:40:47.688Z,45.75
2022-09-09T13:41:02.869Z,45.77
2022-09-09T13:41:22.053Z,45.74
2022-09-09T13:41:34.881Z,45.75
2022-09-09T13:41:51.814Z,45.74
2022-09-09T13:42:25.493Z,45.75
2022-09-09T13:42:39.261Z,45.76
2022-09-09T13:42:57.649Z,45.77
2022-09-09T13:43:12.227Z,45.78
2022-09-09T13:43:28.160Z,45.77
2022-09-09T13:43:46.258Z,45.77
2022-09-09T13:44:00.315Z,45.78
2022-09-09T13:44:16.434Z,45.77
2022-09-09T13:44:32.321Z,45.79
2022-09-09T13:44:49.081Z,45.78
2022-09-09T13:45:03.888Z,45.78
2022-09-09T13:45:21.274Z,45.77
2022-09-09T13:45:37.946Z,45.78
2022-09-09T15:08:13.352Z,46.01
2022-09-09T15:08:29.836Z,46.02
2022-09-09T15:08:46.829Z,46.02
2022-09-09T15:09:18.500Z,46.04
2022-09-09T15:09:33.857Z,46.03
2022-09-09T15:09:49.026Z,46.04
2022-09-09T15:10:05.773Z,46.02
2022-09-09T15:10:20.266Z,46.03
2022-09-09T15:10:37.942Z,46.02
2022-09-09T15:11:09.410Z,46.01
2022-09-09T15:11:24.550Z,46.01
2022-09-09T15:11:41.649Z,46.02
2022-09-09T15:12:12.106Z,46
2022-09-09T15:12:29.689Z,46.02
2022-09-09T15:12:44.523Z,46.02
2022-09-09T15:13:03.596Z,46.02
2022-09-09T15:13:17.171Z,46.01
2022-09-09T15:13:34.777Z,46.02
2022-09-09T15:13:48.869Z,46.02
2022-09-09T15:14:22.632Z,46
2022-09-09T15:14:36.811Z,46.06
2022-09-09T15:14:52.319Z,46.1
2022-09-09T15:15:07.972Z,46.06
2022-09-09T15:15:24.937Z,46.05
2022-09-09T15:15:40.734Z,46.04
2022-09-09T15:15:57.847Z,46.03
2022-09-09T15:16:29.284Z,46.05
2022-09-09T15:16:44.571Z,46.02
2022-09-09T15:17:03.572Z,46.03
2022-09-09T15:17:16.595Z,46.04
2022-09-09T15:17:34.482Z,46.01
2022-09-09T15:17:52.888Z,46.02
2022-09-09T15:18:07.983Z,46.01
2022-09-09T15:18:23.110Z,46.02
2022-09-09T15:18:40.489Z,46.03
2022-09-09T15:18:54.407Z,46.03
2022-09-09T15:19:08.141Z,46.02
2022-09-09T15:19:24.838Z,46.03
2022-09-09T15:19:43.163Z,46.02
2022-09-09T15:20:14.415Z,46.02
2022-09-09T15:20:29.545Z,46.02
2022-09-09T15:20:44.933Z,46.04
2022-09-09T15:21:01.188Z,46.02
2022-09-09T15:21:16.593Z,46.03
2022-09-09T15:21:33.885Z,46.02
2022-09-09T15:21:53.303Z,46.09
2022-09-09T15:22:06.136Z,46.07
2022-09-09T15:22:20.949Z,46.06
2022-09-09T15:22:53.095Z,46.05
2022-09-09T15:23:11.369Z,46.04
2022-09-09T15:23:26.809Z,46.05
2022-09-09T15:23:42.267Z,46.05
2022-09-09T15:23:57.555Z,46.04
2022-09-09T15:24:12.981Z,46.04
2022-09-09T15:24:29.350Z,46.04
2022-09-09T15:24:46.453Z,46.03
2022-09-09T15:25:03.990Z,46.03
2022-09-09T15:25:21.286Z,46.03
2022-09-09T15:25:35.631Z,46.03
2022-09-09T15:25:49.292Z,46.03
2022-09-09T15:26:04.749Z,46.04
2022-09-09T15:26:20.592Z,46.03
2022-09-09T15:26:40.535Z,46.05
2022-09-09T15:26:56.023Z,46.04
2022-09-09T15:27:09.320Z,46.04
2022-09-09T15:27:25.720Z,46.04
2022-09-09T15:27:42.467Z,46.02
2022-09-09T15:27:56.843Z,46.04
2022-09-09T15:28:13.427Z,46.04
2022-09-09T15:28:46.818Z,46.03
2022-09-09T15:29:05.046Z,46.05
2022-09-09T15:29:20.151Z,46.06
2022-09-09T15:30:22.897Z,46.08
2022-09-09T15:30:52.457Z,46.06
2022-09-09T15:31:08.992Z,46.08
2022-09-09T15:31:24.916Z,46.08
2022-09-09T15:31:56.600Z,46.04
2022-09-09T15:32:16.039Z,46.08
2022-09-09T15:32:28.972Z,46.07
2022-09-09T15:32:44.577Z,46.06
2022-09-09T15:33:01.121Z,46.09
2022-09-09T15:33:16.326Z,46.08
2022-09-09T15:33:35.595Z,46.08
2022-09-09T15:33:48.987Z,46.07
2022-09-09T15:34:04.183Z,46.07
2022-09-09T15:34:24.313Z,46.07
2022-09-09T15:34:40.479Z,46.09
2022-09-09T15:34:52.768Z,46.06
2022-09-09T15:35:08.583Z,46.08
2022-09-09T15:35:26.016Z,46.07
2022-09-09T15:35:40.162Z,46.07
2022-09-09T15:35:56.920Z,46.06
2022-09-09T15:36:33.020Z,46.08
2022-09-09T15:36:46.820Z,46.07
2022-09-09T15:37:01.625Z,46.06
2022-09-09T15:37:17.705Z,46.05